Time;durP1;ratioP1;P1;durP2;ratioP2;P2;SDS_P1;SDS_P2;PMS_P1;PMS_P2;Temp;Humidity;BMP_temperature;BMP_pressure;BME280_temperature;BME280_humidity;BME280_pressure;Samples;Min_cycle;Max_cycle;Signal;HPM_P1;HPM_P2
2021/12/15 00:00:57;;;;;;;70.28;29.67;;;9.70;99.90;;;;;;4982854;28;20088;-61
2021/12/15 00:03:24;;;;;;;59.38;25.52;;;9.60;99.90;;;;;;4969871;28;20046;-61
2021/12/15 00:05:51;;;;;;;71.88;29.90;;;9.60;99.90;;;;;;4990139;28;20041;-62
2021/12/15 00:08:17;;;;;;;59.20;27.90;;;9.60;99.90;;;;;;4979321;28;20038;-62
2021/12/15 00:10:44;;;;;;;62.05;27.55;;;9.60;99.90;;;;;;4983393;28;20056;-62
2021/12/15 00:13:13;;;;;;;67.05;27.95;;;9.60;99.90;;;;;;4983297;28;20041;-60
2021/12/15 00:15:40;;;;;;;66.03;29.13;;;9.60;99.90;;;;;;4930067;28;20046;-61
2021/12/15 00:18:06;;;;;;;66.45;28.75;;;9.60;99.90;;;;;;4981154;28;20049;-60
2021/12/15 00:20:33;;;;;;;65.50;27.25;;;9.60;99.90;;;;;;4959674;28;20033;-62
2021/12/15 00:23:00;;;;;;;64.70;25.35;;;9.60;99.90;;;;;;4949413;28;20053;-61
2021/12/15 00:25:30;;;;;;;66.50;27.50;;;9.60;99.90;;;;;;4975517;28;20046;-61
2021/12/15 00:27:57;;;;;;;67.00;27.33;;;9.60;99.90;;;;;;4960682;28;20216;-61
2021/12/15 00:30:23;;;;;;;66.68;26.40;;;9.60;99.90;;;;;;4983353;28;20041;-62
2021/12/15 00:32:49;;;;;;;60.30;26.13;;;9.60;99.90;;;;;;4979445;28;20420;-62
2021/12/15 00:35:16;;;;;;;57.20;24.83;;;9.60;99.90;;;;;;4968105;28;20046;-62
2021/12/15 00:37:42;;;;;;;63.35;26.92;;;9.60;99.90;;;;;;4983968;28;20133;-62
2021/12/15 00:40:11;;;;;;;62.95;26.60;;;9.60;99.90;;;;;;4957611;28;20499;-63
2021/12/15 00:42:38;;;;;;;59.28;25.55;;;9.60;99.90;;;;;;4975780;28;20992;-63
2021/12/15 00:45:05;;;;;;;59.88;25.15;;;9.60;99.90;;;;;;4965677;28;20050;-62
2021/12/15 00:47:31;;;;;;;61.00;24.77;;;9.70;99.90;;;;;;4942768;28;20045;-61
2021/12/15 00:49:57;;;;;;;58.40;24.70;;;9.70;99.90;;;;;;4956687;28;20605;-62
2021/12/15 00:52:23;;;;;;;59.20;25.42;;;9.70;99.90;;;;;;4964159;28;20539;-63
2021/12/15 00:54:49;;;;;;;57.70;26.25;;;9.70;99.90;;;;;;4984966;28;20866;-63
2021/12/15 00:57:15;;;;;;;65.50;25.13;;;9.70;99.90;;;;;;4943034;28;20046;-62
2021/12/15 00:59:41;;;;;;;58.10;25.15;;;9.70;99.90;;;;;;4951958;28;20377;-63
2021/12/15 01:02:08;;;;;;;67.60;25.77;;;9.70;99.90;;;;;;4980474;28;20049;-63
2021/12/15 01:04:34;;;;;;;63.92;25.40;;;9.70;99.90;;;;;;4954577;28;20417;-62
2021/12/15 01:07:03;;;;;;;62.30;25.95;;;9.70;99.90;;;;;;4956213;28;20046;-62
2021/12/15 01:09:37;;;;;;;68.10;26.48;;;9.70;99.90;;;;;;4983660;28;20049;-63
2021/12/15 01:20:32;;;;;;;62.27;26.93;;;9.70;99.90;;;;;;4946516;28;20057;-61
2021/12/15 01:23:04;;;;;;;69.68;27.48;;;9.80;99.90;;;;;;4982830;28;20646;-62
2021/12/15 01:25:37;;;;;;;60.60;26.88;;;9.70;99.90;;;;;;4959930;28;20133;-62
2021/12/15 01:28:04;;;;;;;73.97;29.75;;;9.80;99.90;;;;;;4976732;28;20037;-62
2021/12/15 01:30:34;;;;;;;65.35;28.92;;;9.80;99.90;;;;;;4978766;28;20046;-62
2021/12/15 01:33:01;;;;;;;69.25;29.27;;;9.80;99.90;;;;;;4975394;28;20038;-62
2021/12/15 01:35:28;;;;;;;67.97;29.30;;;9.80;99.90;;;;;;4939427;28;20127;-63
2021/12/15 01:37:54;;;;;;;76.13;30.73;;;9.80;99.90;;;;;;4958613;28;20050;-63
2021/12/15 01:40:32;;;;;;;75.07;30.10;;;9.80;99.90;;;;;;4969639;28;20053;-63
2021/12/15 01:43:00;;;;;;;74.38;30.50;;;9.80;99.90;;;;;;4968059;28;20121;-63
2021/12/15 01:48:14;;;;;;;78.95;32.38;;;9.80;99.90;;;;;;4964130;28;20104;-62
2021/12/15 01:50:43;;;;;;;79.70;31.15;;;9.80;99.90;;;;;;4970920;28;20112;-63
2021/12/15 01:53:10;;;;;;;76.13;31.52;;;9.80;99.90;;;;;;4972431;28;20117;-61
2021/12/15 01:55:35;;;;;;;78.30;32.10;;;9.80;99.90;;;;;;4971123;28;20132;-62
2021/12/15 01:58:01;;;;;;;75.38;31.52;;;9.80;99.90;;;;;;4958364;28;20042;-61
2021/12/15 02:00:33;;;;;;;69.30;31.70;;;9.80;99.90;;;;;;4978519;28;20061;-61
2021/12/15 02:02:59;;;;;;;80.45;32.83;;;9.80;99.90;;;;;;4963954;28;20049;-63
2021/12/15 02:05:29;;;;;;;80.70;32.67;;;9.80;99.90;;;;;;4965955;28;20128;-62
2021/12/15 02:07:55;;;;;;;75.57;33.28;;;9.80;99.90;;;;;;4985777;28;20128;-63
2021/12/15 02:10:25;;;;;;;84.53;33.25;;;9.80;99.90;;;;;;4963532;28;20060;-62
2021/12/15 02:12:51;;;;;;;76.57;32.60;;;9.80;99.90;;;;;;4976011;28;20065;-62
2021/12/15 02:15:24;;;;;;;75.70;33.08;;;9.80;99.90;;;;;;4979092;28;20045;-63
2021/12/15 02:17:49;;;;;;;75.47;33.45;;;9.90;99.90;;;;;;4978713;28;20127;-62
2021/12/15 02:20:18;;;;;;;76.18;32.47;;;9.90;99.90;;;;;;4959804;28;20045;-61
2021/12/15 02:22:44;;;;;;;82.38;32.97;;;9.80;99.90;;;;;;4947917;28;20054;-63
2021/12/15 02:25:13;;;;;;;82.55;34.85;;;9.80;99.90;;;;;;4978136;28;20056;-62
2021/12/15 02:27:40;;;;;;;73.65;31.05;;;9.90;99.90;;;;;;4979972;28;20088;-62
2021/12/15 02:30:25;;;;;;;86.72;34.88;;;9.80;99.90;;;;;;4964556;28;20061;-61
2021/12/15 02:33:35;;;;;;;80.43;32.92;;;9.80;99.90;;;;;;4960015;28;20111;-62
2021/12/15 02:38:34;;;;;;;84.05;34.83;;;9.80;99.90;;;;;;4954117;28;20049;-61
2021/12/15 02:41:08;;;;;;;81.80;32.30;;;9.80;99.90;;;;;;4959755;28;20484;-61
2021/12/15 02:43:34;;;;;;;79.55;34.08;;;9.80;99.90;;;;;;4983579;28;20114;-64
2021/12/15 02:46:00;;;;;;;76.88;33.42;;;9.80;99.90;;;;;;4961479;28;20107;-61
2021/12/15 02:48:26;;;;;;;83.55;33.30;;;9.80;99.90;;;;;;4975014;28;20486;-62
2021/12/15 02:50:52;;;;;;;79.10;33.30;;;9.80;99.90;;;;;;4997166;28;20042;-62
2021/12/15 02:53:18;;;;;;;78.95;34.88;;;9.70;99.90;;;;;;4976768;28;20508;-62
2021/12/15 02:55:44;;;;;;;82.32;35.35;;;9.70;99.90;;;;;;4999209;28;20033;-62
2021/12/15 02:58:11;;;;;;;79.68;34.70;;;9.70;99.90;;;;;;4977258;28;20041;-62
2021/12/15 03:00:50;;;;;;;89.88;34.78;;;9.70;99.90;;;;;;4982121;28;20084;-61
2021/12/15 03:06:10;;;;;;;;;;;9.70;99.90;;;;;;4995965;28;20412;-62
2021/12/15 03:08:53;;;;;;;85.63;36.17;;;9.60;99.90;;;;;;4992431;28;20202;-62
2021/12/15 03:16:50;;;;;;;94.28;37.67;;;9.50;99.90;;;;;;4978239;28;20038;-63
2021/12/15 03:19:16;;;;;;;85.80;36.03;;;9.60;99.90;;;;;;4993636;28;20389;-63
2021/12/15 03:21:41;;;;;;;90.22;37.10;;;9.60;99.90;;;;;;4975029;28;20053;-61
2021/12/15 03:24:14;;;;;;;92.40;36.92;;;9.50;99.90;;;;;;4978686;28;20544;-62
2021/12/15 03:26:50;;;;;;;87.55;37.60;;;9.60;99.90;;;;;;4974424;28;20107;-62
2021/12/15 03:37:29;;;;;;;90.53;35.13;;;9.60;99.90;;;;;;4978573;28;20485;-63
2021/12/15 03:40:36;;;;;;;80.00;34.03;;;9.60;99.90;;;;;;4961641;28;20100;-63
2021/12/15 03:43:08;;;;;;;85.65;33.95;;;9.60;99.90;;;;;;4950874;28;20410;-63
2021/12/15 03:45:43;;;;;;;79.93;34.25;;;9.60;99.90;;;;;;5002391;28;20034;-63
2021/12/15 03:48:13;;;;;;;73.28;33.33;;;9.60;99.90;;;;;;5005824;28;20107;-63
2021/12/15 03:50:41;;;;;;;77.00;33.28;;;9.60;99.90;;;;;;4982392;28;20530;-63
2021/12/15 03:53:07;;;;;;;77.38;33.55;;;9.60;99.90;;;;;;4971972;28;20042;-63
2021/12/15 03:55:35;;;;;;;78.03;34.90;;;9.60;99.90;;;;;;5000389;28;20047;-63
2021/12/15 03:58:07;;;;;;;75.07;34.90;;;9.60;99.90;;;;;;5012436;28;20496;-63
2021/12/15 04:00:33;;;;;;;73.43;32.55;;;9.60;99.90;;;;;;4980657;28;20042;-63
2021/12/15 04:02:59;;;;;;;71.20;33.40;;;9.60;99.90;;;;;;4986739;28;20046;-63
2021/12/15 04:05:25;;;;;;;82.10;34.58;;;9.70;99.90;;;;;;4996579;28;22022;-63
2021/12/15 04:07:52;;;;;;;82.18;35.65;;;9.60;99.90;;;;;;5002785;28;20053;-63
2021/12/15 04:10:21;;;;;;;80.75;33.95;;;9.60;99.90;;;;;;4981050;28;20377;-63
2021/12/15 04:12:48;;;;;;;71.20;33.28;;;9.60;99.90;;;;;;4997869;28;20088;-63
2021/12/15 04:17:51;;;;;;;72.35;33.15;;;9.60;99.90;;;;;;5001904;28;20113;-63
2021/12/15 04:20:20;;;;;;;75.72;32.95;;;9.60;99.90;;;;;;4996380;28;20110;-63
2021/12/15 04:22:46;;;;;;;72.00;33.00;;;9.60;99.90;;;;;;4962957;28;20041;-63
2021/12/15 04:25:18;;;;;;;79.13;31.85;;;9.60;99.90;;;;;;5001493;28;20037;-63
2021/12/15 04:27:52;;;;;;;72.30;31.13;;;9.60;99.90;;;;;;4992768;28;20237;-63
2021/12/15 04:30:17;;;;;;;80.13;33.53;;;9.60;99.90;;;;;;4998166;28;20374;-64
2021/12/15 04:32:48;;;;;;;70.90;31.98;;;9.60;99.90;;;;;;4998620;28;20037;-63
2021/12/15 04:35:15;;;;;;;66.40;31.50;;;9.60;99.90;;;;;;5001358;28;20030;-63
2021/12/15 04:37:42;;;;;;;75.80;33.22;;;9.60;99.90;;;;;;4988305;28;20042;-63
2021/12/15 04:40:11;;;;;;;70.50;32.15;;;9.60;99.90;;;;;;4995099;28;20137;-63
2021/12/15 04:42:38;;;;;;;79.72;33.72;;;9.60;99.90;;;;;;4993783;28;20120;-63
2021/12/15 04:45:06;;;;;;;67.55;32.28;;;9.60;99.90;;;;;;4999437;28;20044;-64
2021/12/15 04:47:33;;;;;;;77.40;32.80;;;9.60;99.90;;;;;;4996117;28;20044;-63
2021/12/15 04:49:58;;;;;;;80.00;33.08;;;9.60;99.90;;;;;;4996327;28;20038;-64
2021/12/15 04:52:32;;;;;;;71.72;32.47;;;9.60;99.90;;;;;;4970619;28;20504;-63
2021/12/15 04:54:59;;;;;;;67.45;32.05;;;9.60;99.90;;;;;;4996812;28;22147;-63
2021/12/15 04:57:27;;;;;;;76.13;31.30;;;9.50;99.90;;;;;;4989221;28;20038;-64
2021/12/15 04:59:55;;;;;;;67.80;32.50;;;9.50;99.90;;;;;;4976208;28;20046;-63
2021/12/15 05:02:21;;;;;;;71.45;33.05;;;9.50;99.90;;;;;;4994383;28;20046;-63
2021/12/15 05:04:49;;;;;;;71.82;32.03;;;9.50;99.90;;;;;;4976129;28;20046;-63
2021/12/15 05:07:16;;;;;;;75.22;32.40;;;9.50;99.90;;;;;;4970358;28;20775;-63
2021/12/15 05:09:44;;;;;;;70.88;32.53;;;9.50;99.90;;;;;;4957690;28;20049;-63
2021/12/15 05:12:10;;;;;;;70.13;31.80;;;9.50;99.90;;;;;;4991971;28;20515;-63
2021/12/15 05:14:36;;;;;;;80.75;33.53;;;9.50;99.90;;;;;;4970181;28;20548;-63
2021/12/15 05:17:03;;;;;;;79.88;33.80;;;9.50;99.90;;;;;;4987885;28;20052;-63
2021/12/15 05:19:29;;;;;;;78.85;32.97;;;9.50;99.90;;;;;;4984391;28;20045;-63
2021/12/15 05:21:57;;;;;;;72.55;32.95;;;9.50;99.90;;;;;;4973937;28;20308;-63
2021/12/15 05:24:30;;;;;;;75.30;31.83;;;9.50;99.90;;;;;;4996683;28;20112;-63
2021/12/15 05:27:09;;;;;;;78.73;32.87;;;9.50;99.90;;;;;;4977834;28;20041;-63
2021/12/15 05:29:37;;;;;;;79.47;32.35;;;9.50;99.90;;;;;;4997838;22;20320;-57
2021/12/15 05:32:03;;;;;;;70.20;32.35;;;9.50;99.90;;;;;;4982761;28;20050;-56
2021/12/15 05:34:30;;;;;;;77.28;32.58;;;9.60;99.90;;;;;;5000630;28;20054;-58
2021/12/15 05:36:56;;;;;;;74.80;31.77;;;9.60;99.90;;;;;;4997871;28;20045;-56
2021/12/15 05:39:22;;;;;;;76.03;31.00;;;9.60;99.90;;;;;;5010888;28;20037;-58
2021/12/15 05:41:49;;;;;;;85.22;34.60;;;9.60;99.90;;;;;;4982392;28;20068;-56
2021/12/15 05:44:15;;;;;;;72.25;32.58;;;9.60;99.90;;;;;;5012881;28;20053;-54
2021/12/15 05:46:41;;;;;;;76.45;32.70;;;9.60;99.90;;;;;;4991597;28;20049;-58
2021/12/15 05:49:07;;;;;;;74.40;31.30;;;9.60;99.90;;;;;;4991787;28;20136;-57
2021/12/15 05:51:34;;;;;;;72.88;29.92;;;9.60;99.90;;;;;;4984875;28;20038;-59
2021/12/15 05:54:00;;;;;;;73.45;31.90;;;9.60;99.90;;;;;;4995694;28;20084;-55
2021/12/15 05:56:26;;;;;;;78.20;32.65;;;9.70;99.90;;;;;;4977492;28;20536;-58
2021/12/15 05:58:52;;;;;;;73.55;31.77;;;9.70;99.90;;;;;;5007232;28;20084;-58
2021/12/15 06:01:18;;;;;;;71.25;30.75;;;9.70;99.90;;;;;;4986080;28;20065;-59
2021/12/15 06:03:44;;;;;;;74.57;31.63;;;9.70;99.90;;;;;;5010490;28;20131;-55
2021/12/15 06:06:10;;;;;;;83.70;33.22;;;9.70;99.90;;;;;;4997117;28;20620;-55
2021/12/15 06:08:36;;;;;;;75.40;32.83;;;9.70;99.90;;;;;;4999475;28;20042;-56
2021/12/15 06:11:03;;;;;;;78.15;31.65;;;9.70;99.90;;;;;;4996617;28;20516;-57
2021/12/15 06:13:30;;;;;;;71.10;30.48;;;9.70;99.90;;;;;;4987417;28;20038;-54
2021/12/15 06:15:58;;;;;;;73.65;31.13;;;9.70;99.90;;;;;;5009192;28;20478;-60
2021/12/15 06:18:24;;;;;;;68.63;30.85;;;9.70;99.90;;;;;;5006586;28;20048;-56
2021/12/15 06:20:52;;;;;;;75.00;30.60;;;9.70;99.90;;;;;;4986881;28;20112;-58
2021/12/15 06:23:19;;;;;;;68.13;29.73;;;9.70;99.90;;;;;;4992513;28;20673;-55
2021/12/15 06:25:49;;;;;;;79.60;30.77;;;9.70;99.90;;;;;;5007062;28;21423;-59
2021/12/15 06:28:16;;;;;;;68.47;29.38;;;9.70;99.90;;;;;;4991714;28;21093;-59
2021/12/15 06:30:44;;;;;;;63.33;28.50;;;9.80;99.90;;;;;;4990798;28;20158;-59
2021/12/15 06:33:11;;;;;;;71.10;30.73;;;9.80;99.90;;;;;;4988090;28;20034;-58
2021/12/15 06:35:37;;;;;;;65.68;28.52;;;9.70;99.90;;;;;;4998627;28;20049;-55
2021/12/15 06:38:04;;;;;;;69.53;29.52;;;9.70;99.90;;;;;;5002975;28;20072;-58
2021/12/15 06:40:30;;;;;;;64.38;29.65;;;9.80;99.90;;;;;;5000436;28;20053;-58
2021/12/15 06:42:56;;;;;;;69.82;29.25;;;9.70;99.90;;;;;;4988301;28;20424;-53
2021/12/15 06:45:29;;;;;;;67.93;28.45;;;9.70;99.90;;;;;;4995333;28;20055;-58
2021/12/15 06:58:51;;;;;;;59.53;24.75;;;9.70;99.90;;;;;;5008489;28;19921;-56
2021/12/15 07:01:17;;;;;;;64.40;26.92;;;9.70;99.90;;;;;;4992302;28;20033;-58
2021/12/15 07:03:43;;;;;;;60.28;25.73;;;9.70;99.90;;;;;;5000722;28;20037;-55
2021/12/15 07:06:09;;;;;;;61.97;26.85;;;9.70;99.90;;;;;;5000479;28;20682;-53
2021/12/15 07:08:36;;;;;;;73.85;30.33;;;9.70;99.90;;;;;;4995042;28;20072;-56
2021/12/15 07:11:03;;;;;;;60.30;25.38;;;9.70;99.90;;;;;;5011484;28;20048;-55
2021/12/15 07:13:30;;;;;;;52.70;24.92;;;9.70;99.90;;;;;;4997658;28;20044;-56
2021/12/15 07:16:03;;;;;;;57.42;25.92;;;9.70;99.90;;;;;;5015084;28;20124;-57
2021/12/15 07:18:40;;;;;;;64.18;27.23;;;9.70;99.90;;;;;;4992873;28;20124;-57
2021/12/15 07:21:10;;;;;;;55.55;25.58;;;9.80;99.90;;;;;;5004979;28;20045;-56
2021/12/15 07:23:37;;;;;;;56.17;25.20;;;9.70;99.90;;;;;;4978533;28;20530;-57
2021/12/15 07:26:03;;;;;;;57.28;25.40;;;9.70;99.90;;;;;;4982273;28;20049;-55
2021/12/15 07:28:29;;;;;;;53.10;23.70;;;9.70;99.90;;;;;;4989086;28;20051;-56
2021/12/15 07:30:55;;;;;;;46.40;22.38;;;9.70;99.90;;;;;;5015852;28;20041;-56
2021/12/15 07:33:22;;;;;;;56.70;23.50;;;9.70;99.90;;;;;;5000651;28;20052;-57
2021/12/15 07:35:48;;;;;;;56.22;23.33;;;9.70;99.90;;;;;;5000149;28;20137;-58
2021/12/15 07:38:14;;;;;;;51.38;22.88;;;9.70;99.90;;;;;;4981383;28;20053;-57
2021/12/15 07:40:41;;;;;;;51.35;23.25;;;9.70;99.90;;;;;;4986660;28;20415;-55
2021/12/15 07:43:13;;;;;;;56.08;23.55;;;9.70;99.90;;;;;;4996918;28;20064;-56
2021/12/15 07:45:50;;;;;;;50.88;22.17;;;9.70;99.90;;;;;;5002516;28;20037;-55
2021/12/15 07:48:16;;;;;;;51.05;22.40;;;9.60;99.90;;;;;;4999042;28;20045;-57
2021/12/15 07:50:45;;;;;;;53.30;22.70;;;9.60;99.90;;;;;;5002104;28;20050;-57
2021/12/15 07:53:12;;;;;;;42.60;21.35;;;9.60;99.90;;;;;;4990097;28;20045;-57
2021/12/15 07:55:38;;;;;;;44.88;19.65;;;9.60;99.90;;;;;;5012594;28;20120;-55
2021/12/15 07:58:06;;;;;;;40.05;19.42;;;9.60;99.90;;;;;;5009836;28;20562;-57
2021/12/15 08:00:32;;;;;;;45.58;17.95;;;9.60;99.90;;;;;;4984911;28;20658;-53
2021/12/15 08:02:58;;;;;;;38.83;18.08;;;9.60;99.90;;;;;;4978708;28;21069;-56
2021/12/15 08:05:25;;;;;;;43.17;17.23;;;9.60;99.90;;;;;;4995497;28;20048;-54
2021/12/15 08:07:51;;;;;;;44.05;18.10;;;9.60;99.90;;;;;;5001103;28;20053;-58
2021/12/15 08:10:17;;;;;;;40.78;19.85;;;9.60;99.90;;;;;;4972328;28;20134;-55
2021/12/15 08:12:45;;;;;;;44.08;20.70;;;9.60;99.90;;;;;;4992274;28;20084;-55
2021/12/15 08:15:11;;;;;;;46.95;19.65;;;9.50;99.90;;;;;;4966780;28;20041;-56
2021/12/15 08:17:39;;;;;;;43.00;21.40;;;9.60;99.90;;;;;;4970345;28;20042;-56
2021/12/15 08:20:07;;;;;;;42.33;20.20;;;9.50;99.90;;;;;;4987825;28;20038;-55
2021/12/15 08:22:33;;;;;;;49.20;21.75;;;9.50;99.90;;;;;;4991471;28;20067;-57
2021/12/15 08:24:59;;;;;;;46.45;22.88;;;9.60;99.90;;;;;;4996368;28;20048;-56
2021/12/15 08:27:25;;;;;;;51.67;20.63;;;9.60;99.90;;;;;;4993960;28;20069;-56
2021/12/15 08:29:51;;;;;;;48.33;22.67;;;9.60;99.90;;;;;;4998120;28;20695;-57
2021/12/15 08:32:17;;;;;;;47.42;23.10;;;9.50;99.90;;;;;;4969591;28;20492;-57
2021/12/15 08:34:42;;;;;;;55.65;22.58;;;9.50;99.90;;;;;;4984918;28;20157;-56
2021/12/15 08:37:13;;;;;;;52.00;22.58;;;9.60;99.90;;;;;;4996261;28;20038;-58
2021/12/15 08:39:40;;;;;;;49.40;22.45;;;9.60;99.90;;;;;;4994564;28;20041;-56
2021/12/15 08:42:07;;;;;;;46.92;22.58;;;9.60;99.90;;;;;;4992058;28;20099;-55
2021/12/15 08:44:33;;;;;;;48.95;22.27;;;9.60;99.90;;;;;;4990766;28;20148;-56
2021/12/15 08:46:59;;;;;;;50.80;22.65;;;9.60;99.90;;;;;;5012349;28;20116;-54
2021/12/15 08:49:25;;;;;;;45.10;20.50;;;9.60;99.90;;;;;;4990832;28;20104;-55
2021/12/15 08:51:51;;;;;;;48.35;20.27;;;9.60;99.90;;;;;;4981554;28;20046;-56
2021/12/15 08:54:20;;;;;;;54.30;22.25;;;9.60;99.90;;;;;;5014423;28;20256;-53
2021/12/15 08:56:47;;;;;;;47.08;20.52;;;9.60;99.90;;;;;;4995951;28;20041;-56
2021/12/15 08:59:13;;;;;;;45.00;21.55;;;9.70;99.90;;;;;;4965021;28;20064;-57
2021/12/15 09:01:41;;;;;;;47.60;21.05;;;9.70;99.90;;;;;;4995086;28;20080;-57
2021/12/15 09:04:07;;;;;;;49.88;21.58;;;9.70;99.90;;;;;;4994795;28;20072;-57
2021/12/15 09:06:35;;;;;;;53.83;20.27;;;9.70;99.90;;;;;;4973608;28;20132;-57
2021/12/15 09:09:03;;;;;;;48.28;21.40;;;9.70;99.90;;;;;;4994963;28;20056;-56
2021/12/15 09:11:28;;;;;;;41.95;19.30;;;9.70;99.90;;;;;;4997810;28;20504;-56
2021/12/15 09:13:57;;;;;;;37.42;19.98;;;9.70;99.90;;;;;;4994867;28;20046;-56
2021/12/15 09:16:24;;;;;;;40.30;19.23;;;9.70;99.90;;;;;;4993336;28;20049;-56
2021/12/15 09:18:52;;;;;;;40.88;19.27;;;9.70;99.90;;;;;;4996386;28;20037;-57
2021/12/15 09:21:19;;;;;;;36.42;18.92;;;9.70;99.90;;;;;;5000822;28;20092;-56
2021/12/15 09:23:46;;;;;;;35.42;17.48;;;9.70;99.90;;;;;;4980009;28;20041;-55
2021/12/15 09:26:12;;;;;;;32.88;15.90;;;9.80;99.90;;;;;;4996700;28;20049;-54
2021/12/15 09:28:38;;;;;;;33.85;16.58;;;9.80;99.90;;;;;;4980628;28;20052;-55
2021/12/15 09:31:06;;;;;;;29.35;16.10;;;9.80;99.90;;;;;;4992847;28;20042;-53
2021/12/15 09:33:33;;;;;;;38.83;17.02;;;9.80;99.90;;;;;;4982621;28;20037;-53
2021/12/15 09:36:01;;;;;;;37.05;16.40;;;9.80;99.90;;;;;;4992149;28;20197;-56
2021/12/15 09:38:27;;;;;;;39.83;17.08;;;9.80;99.90;;;;;;4975505;28;20050;-56
2021/12/15 09:40:57;;;;;;;32.13;17.02;;;9.80;99.90;;;;;;4983791;28;20124;-54
2021/12/15 09:43:27;;;;;;;35.22;18.77;;;9.80;99.90;;;;;;4991011;28;20045;-57
2021/12/15 09:46:04;;;;;;;41.10;17.55;;;9.80;99.90;;;;;;4969812;28;20149;-54
2021/12/15 10:18:17;;;;;;;28.42;14.48;;;9.90;99.90;;;;;;5008881;28;19925;-58
2021/12/15 10:20:43;;;;;;;29.33;13.95;;;9.90;99.90;;;;;;4981656;28;20396;-60
2021/12/15 10:23:15;;;;;;;25.15;13.35;;;9.90;99.90;;;;;;5013896;28;20048;-57
2021/12/15 10:25:49;;;;;;;28.30;13.02;;;9.90;99.90;;;;;;4977919;28;20037;-54
2021/12/15 10:28:24;;;;;;;31.90;14.75;;;10.00;99.90;;;;;;4987034;28;20054;-57
2021/12/15 10:30:56;;;;;;;27.52;13.27;;;10.00;99.90;;;;;;4997723;28;20048;-58
2021/12/15 10:33:33;;;;;;;31.50;13.98;;;10.00;99.90;;;;;;4990952;28;20033;-57
2021/12/15 10:36:06;;;;;;;26.13;12.82;;;10.10;99.90;;;;;;4999226;28;20132;-56
2021/12/15 10:38:45;;;;;;;25.40;13.25;;;10.10;99.90;;;;;;4982368;28;20049;-56
2021/12/15 10:41:24;;;;;;;26.42;13.82;;;10.10;99.90;;;;;;4972757;28;20034;-57
2021/12/15 10:44:00;;;;;;;26.45;13.80;;;10.10;99.90;;;;;;4999691;28;20553;-55
2021/12/15 10:46:31;;;;;;;28.67;13.68;;;10.10;99.90;;;;;;4992671;28;21007;-57
2021/12/15 10:49:29;;;;;;;32.13;14.35;;;10.10;99.90;;;;;;4997434;28;20045;-60
2021/12/15 10:52:02;;;;;;;28.90;14.80;;;10.10;99.90;;;;;;4987902;28;20145;-57
2021/12/15 10:54:34;;;;;;;27.25;13.93;;;10.10;99.90;;;;;;4979604;28;22270;-59
2021/12/15 10:57:05;;;;;;;29.33;14.35;;;10.10;99.90;;;;;;4994751;28;20184;-57
2021/12/15 10:59:35;;;;;;;27.13;14.65;;;10.10;99.90;;;;;;4994382;28;20034;-57
2021/12/15 11:02:07;;;;;;;25.63;13.93;;;10.10;99.90;;;;;;4995751;28;20050;-56
2021/12/15 11:04:49;;;;;;;25.10;12.57;;;10.20;99.90;;;;;;4986664;28;20081;-60
2021/12/15 11:07:16;;;;;;;26.10;13.13;;;10.20;99.90;;;;;;4994705;28;20533;-56
2021/12/15 11:09:51;;;;;;;22.83;11.98;;;10.20;99.90;;;;;;5005370;28;20115;-57
2021/12/15 11:12:31;;;;;;;22.48;10.60;;;10.20;99.90;;;;;;5000286;28;20408;-57
2021/12/15 11:14:59;;;;;;;17.65;9.38;;;10.20;99.90;;;;;;4990680;28;20049;-57
2021/12/15 11:17:29;;;;;;;18.70;8.40;;;10.30;99.90;;;;;;4996453;28;20042;-57
2021/12/15 11:20:06;;;;;;;17.88;7.13;;;10.30;99.90;;;;;;4991502;28;20034;-56
2021/12/15 11:22:47;;;;;;;18.35;7.00;;;10.40;99.90;;;;;;4987805;28;20046;-58
2021/12/15 11:25:24;;;;;;;13.98;6.03;;;10.30;99.90;;;;;;4998049;28;20054;-59
2021/12/15 11:27:57;;;;;;;18.20;6.30;;;10.40;99.90;;;;;;4971385;28;20072;-57
2021/12/15 11:30:35;;;;;;;14.75;5.70;;;10.40;99.90;;;;;;5002649;28;20070;-58
2021/12/15 11:33:05;;;;;;;11.88;4.65;;;10.50;99.90;;;;;;4988527;28;20504;-57
2021/12/15 11:38:06;;;;;;;14.80;4.40;;;10.50;99.90;;;;;;5010624;28;20041;-64
2021/12/15 11:40:39;;;;;;;10.63;3.60;;;10.50;99.90;;;;;;5004781;28;20041;-64
2021/12/15 11:43:05;;;;;;;16.05;4.22;;;10.50;99.90;;;;;;5003383;28;20025;-63
2021/12/15 11:45:31;;;;;;;14.20;4.05;;;10.50;99.90;;;;;;4988229;28;20045;-65
2021/12/15 11:48:17;;;;;;;13.73;3.70;;;10.60;99.90;;;;;;5013568;28;20033;-63
2021/12/15 11:50:45;;;;;;;9.52;4.00;;;10.60;99.90;;;;;;5006212;28;20058;-65
2021/12/15 11:53:34;;;;;;;13.13;3.92;;;10.60;99.90;;;;;;4973515;28;20046;-64
2021/12/15 11:56:31;;;;;;;8.15;3.72;;;10.50;99.90;;;;;;5005357;28;20634;-64
2021/12/15 11:59:18;;;;;;;11.60;3.80;;;10.60;99.90;;;;;;4994528;28;20045;-60
2021/12/15 12:01:58;;;;;;;11.52;3.38;;;10.50;99.90;;;;;;4990039;28;20049;-63
2021/12/15 12:04:37;;;;;;;11.90;3.17;;;10.60;99.90;;;;;;5002646;28;20053;-61
2021/12/15 12:07:38;;;;;;;8.07;2.90;;;10.50;99.90;;;;;;4972229;28;20055;-61
2021/12/15 12:10:20;;;;;;;12.05;3.00;;;10.50;99.90;;;;;;4995012;28;20515;-62
2021/12/15 12:12:53;;;;;;;10.02;2.75;;;10.50;99.90;;;;;;4976850;28;20056;-62
2021/12/15 12:15:25;;;;;;;8.07;3.20;;;10.50;99.90;;;;;;4989931;28;20084;-61
2021/12/15 12:17:53;;;;;;;8.50;2.88;;;10.50;99.90;;;;;;4985976;28;20249;-62
2021/12/15 12:20:24;;;;;;;7.82;2.60;;;10.50;99.90;;;;;;4981325;28;20038;-62
2021/12/15 12:22:51;;;;;;;10.43;3.40;;;10.50;99.90;;;;;;4999905;28;20030;-61
2021/12/15 12:25:47;;;;;;;6.30;2.30;;;10.40;99.90;;;;;;5006389;28;20049;-62
2021/12/15 12:28:18;;;;;;;8.07;2.22;;;10.50;99.90;;;;;;4984510;28;20113;-62
2021/12/15 12:30:47;;;;;;;9.73;2.83;;;10.50;99.90;;;;;;4995948;28;20049;-62
2021/12/15 12:33:15;;;;;;;7.28;3.92;;;10.50;99.90;;;;;;4999635;28;20128;-62
2021/12/15 12:36:04;;;;;;;11.18;2.38;;;10.50;99.90;;;;;;4987310;28;20118;-61
2021/12/15 12:38:32;;;;;;;6.55;2.67;;;10.60;99.90;;;;;;5012148;28;20064;-62
2021/12/15 12:41:05;;;;;;;7.70;2.83;;;10.60;99.90;;;;;;5003384;28;20044;-63
2021/12/15 12:43:38;;;;;;;10.33;3.10;;;10.50;99.90;;;;;;5017345;28;20044;-62
2021/12/15 12:46:16;;;;;;;8.80;3.17;;;10.60;99.90;;;;;;5000068;28;20050;-63
2021/12/15 13:00:31;;;;;;;6.85;2.40;;;10.30;99.90;;;;;;4996225;28;20950;-65
2021/12/15 13:03:01;;;;;;;5.13;2.00;;;10.30;99.90;;;;;;5012505;28;20558;-65
2021/12/15 13:05:27;;;;;;;7.15;2.55;;;10.20;99.90;;;;;;4998399;28;20115;-65
2021/12/15 13:07:56;;;;;;;5.38;2.17;;;10.20;99.90;;;;;;5020063;28;20041;-66
2021/12/15 13:10:48;;;;;;;5.97;2.30;;;10.20;99.90;;;;;;4998310;28;20067;-64
2021/12/15 13:13:16;;;;;;;6.80;2.42;;;10.20;99.90;;;;;;5006863;28;20037;-63
2021/12/15 13:15:44;;;;;;;6.53;2.22;;;10.20;99.90;;;;;;5016124;28;20087;-64
2021/12/15 13:18:13;;;;;;;7.45;2.80;;;10.20;99.90;;;;;;5008999;28;20108;-65
2021/12/15 13:20:39;;;;;;;10.10;2.42;;;10.20;99.90;;;;;;5024052;28;20041;-64
2021/12/15 13:23:30;;;;;;;7.28;2.50;;;10.20;99.90;;;;;;5003808;28;20666;-65
2021/12/15 13:31:27;;;;;;;5.47;2.35;;;10.20;99.90;;;;;;4996526;28;23871;-66
2021/12/15 13:34:00;;;;;;;8.57;2.58;;;10.20;99.90;;;;;;5001976;28;20041;-64
2021/12/15 13:36:29;;;;;;;8.57;3.42;;;10.20;99.90;;;;;;4987908;28;20046;-64
2021/12/15 13:39:06;;;;;;;8.30;4.43;;;10.20;99.90;;;;;;4984070;28;20046;-65
2021/12/15 13:41:48;;;;;;;8.68;3.85;;;10.20;99.90;;;;;;4994951;28;20506;-64
2021/12/15 13:44:38;;;;;;;12.48;4.30;;;10.20;99.90;;;;;;4994499;28;20188;-64
2021/12/15 13:47:09;;;;;;;6.95;3.10;;;10.20;99.90;;;;;;5014771;28;20041;-65
2021/12/15 13:49:46;;;;;;;7.20;3.60;;;10.20;99.90;;;;;;4991868;28;20069;-64
2021/12/15 13:52:20;;;;;;;9.93;4.38;;;10.20;99.90;;;;;;5004508;28;20500;-66
2021/12/15 13:54:48;;;;;;;13.35;4.57;;;10.10;99.90;;;;;;4988486;28;20099;-64
2021/12/15 13:57:14;;;;;;;10.00;3.85;;;10.10;99.90;;;;;;4994421;28;25453;-64
2021/12/15 13:59:50;;;;;;;8.93;4.88;;;10.10;99.90;;;;;;4995522;28;20645;-64
2021/12/15 14:02:23;;;;;;;9.40;4.53;;;10.10;99.90;;;;;;4994485;28;20077;-66
2021/12/15 14:04:59;;;;;;;7.85;2.83;;;10.10;99.90;;;;;;4994415;28;20054;-64
2021/12/15 14:07:28;;;;;;;12.73;4.55;;;10.10;99.90;;;;;;5001063;28;20626;-67
2021/12/15 14:10:21;;;;;;;10.48;2.78;;;10.10;99.90;;;;;;4993884;28;20553;-65
2021/12/15 14:12:49;;;;;;;8.10;3.00;;;10.10;99.90;;;;;;4954831;28;20068;-66
2021/12/15 14:15:27;;;;;;;8.57;4.22;;;10.10;99.90;;;;;;4999141;28;20042;-63
2021/12/15 14:18:04;;;;;;;6.60;3.30;;;10.10;99.90;;;;;;4998019;28;20041;-67
2021/12/15 14:20:32;;;;;;;6.28;2.50;;;10.10;99.90;;;;;;5002101;28;20168;-65
2021/12/15 14:23:18;;;;;;;7.38;3.17;;;10.10;99.90;;;;;;4997067;28;20625;-64
2021/12/15 14:25:45;;;;;;;6.70;3.72;;;10.10;99.90;;;;;;5020604;28;20033;-64